Portada
METAR-TAF:

METAR-TAF

Aeropuertos :

Vicksburg Tallulah Regional Airport

Tallulah / Vicksburg, Luisiana, Estados Unidos

latitud: 32-20-53N, longitud: 091-01-48W, altitud: 26 m

Observación

El informe se hizo hace 32 minutos, a las 20:53 UTC
Viento 5 kt del sureste
Temperatura 24°C
Humedad 38%
Presión 1016 hPa
Visibilidad: 16.1 km
Cielo despejado

METAR: KTVR 022053Z AUTO 13005KT 10SM CLR 24/09 A3000 RMK AO2 SLP164 T02440089 56024

Hora: 16:25 (21:25 UTC)


TAF: falta

Observaciones y pronósticos meteorológicos de más de 4000 aeropuertos (mensajes METAR y TAF).

Los puntos amarillos y rojos representan las estaciones disponibles.

Ponga el ratón en el punto deseado para ver el nombre de la estación.

Haga clic para ver las observaciones y los pronósticos meteorológicos.

Para cambiar el mapa : haga clic en los botones verdes con una cruz de color negro para hacer un zoom, en el botón verde con un guión para alejar o en las flechas verdes para mapas adyacentes.


METAR-TAF: